createdAt,value
2019-06-02T00:04:52.502Z,22.9
2019-06-02T00:21:42.995Z,22.9
2019-06-02T00:38:34.468Z,22.9
2019-06-02T00:55:23.787Z,22.9
2019-06-02T01:12:14.091Z,22.9
2019-06-02T01:29:04.331Z,22.9
2019-06-02T01:45:54.461Z,22.6
2019-06-02T02:02:44.555Z,22.6
2019-06-02T02:19:35.712Z,22.6
2019-06-02T02:36:24.706Z,22.6
2019-06-02T02:53:14.767Z,22.6
2019-06-02T03:10:04.659Z,22.6
2019-06-02T03:26:54.495Z,22.2
2019-06-02T03:43:45.835Z,22.2
2019-06-02T04:00:34.221Z,22.2
2019-06-02T04:17:23.897Z,22.6
2019-06-02T04:34:13.613Z,22.6
2019-06-02T04:51:03.260Z,22.6
2019-06-02T05:07:55.184Z,22.9
2019-06-02T05:23:03.294Z,23.5
2019-06-02T05:39:55.420Z,23.8
2019-06-02T05:56:46.915Z,24.2
2019-06-02T06:13:38.320Z,24.5
2019-06-02T06:30:30.597Z,24.5
2019-06-02T06:47:23.027Z,24.8
2019-06-02T07:04:15.780Z,24.8
2019-06-02T07:21:08.401Z,25.1
2019-06-02T07:38:01.992Z,25.1
2019-06-02T07:54:54.650Z,25.4
2019-06-02T08:11:48.144Z,25.4
2019-06-02T08:28:41.246Z,25.4
2019-06-02T08:45:35.411Z,25.8
2019-06-02T09:02:30.819Z,25.8
2019-06-02T09:19:22.404Z,25.8
2019-06-02T09:36:16.062Z,25.8
2019-06-02T09:53:09.957Z,26.1
2019-06-02T10:10:03.972Z,26.1
2019-06-02T10:26:58.064Z,26.1
2019-06-02T10:43:52.127Z,26.1
2019-06-02T10:55:42.218Z,26.4
2019-06-02T11:12:37.005Z,26.7
2019-06-02T11:29:32.044Z,27.0
2019-06-02T11:37:59.692Z,27.0
2019-06-02T11:54:55.214Z,27.4
2019-06-02T12:11:51.770Z,27.0
2019-06-02T12:28:45.872Z,27.0
2019-06-02T12:45:41.062Z,27.0
2019-06-02T13:02:36.183Z,27.0
2019-06-02T13:19:31.723Z,27.4
2019-06-02T13:33:04.010Z,27.4
2019-06-02T13:49:59.941Z,27.7
2019-06-02T14:06:55.922Z,27.7
2019-06-02T14:23:51.923Z,28.0
2019-06-02T14:40:48.085Z,27.7
2019-06-02T14:57:44.092Z,27.7
2019-06-02T15:14:39.977Z,27.7
2019-06-02T15:31:41.013Z,27.7
2019-06-02T15:48:32.092Z,28.0
2019-06-02T16:05:29.603Z,28.0
2019-06-02T16:22:24.854Z,28.0
2019-06-02T16:56:17.876Z,28.0
2019-06-02T17:13:14.061Z,27.7
2019-06-02T17:30:10.275Z,27.7
2019-06-02T17:47:06.259Z,27.7
2019-06-02T18:04:02.070Z,27.4
2019-06-02T18:20:57.572Z,27.0
2019-06-02T18:37:53.053Z,27.0
2019-06-02T18:54:49.386Z,26.7
2019-06-02T19:11:43.259Z,26.7
2019-06-02T19:28:38.176Z,26.4
2019-06-02T19:45:33.049Z,26.4
2019-06-02T20:02:27.710Z,26.1
2019-06-02T20:19:22.398Z,26.1
2019-06-02T20:36:16.983Z,26.1
2019-06-02T20:53:11.512Z,26.1
2019-06-02T21:10:05.924Z,25.8
2019-06-02T21:25:18.414Z,25.8
2019-06-02T21:42:11.801Z,25.8
2019-06-02T21:59:05.053Z,25.8
2019-06-02T22:15:58.383Z,25.4
2019-06-02T22:32:51.605Z,25.4
2019-06-02T22:49:44.800Z,25.4
2019-06-02T23:06:37.811Z,25.4
2019-06-02T23:23:30.849Z,25.1
2019-06-02T23:40:23.819Z,25.1
2019-06-02T23:57:17.246Z,25.1
